Flight Information

DEPARTURE
APPLE VALLEY, CA
Elevation:
3061
Runways:
18/36 - 6498x150 - ASPH-G
8/26 - 4099x60 - ASPH-G
CTAF:
122.800
DESTINATION
BAKERSFIELD, CA
Elevation:
509
TPA:
1509 (est.)
Runways:
12L/30R - 10849x150 - ASPH-G
12R/30L - 7700x100 - ASPH-E
ATIS:
118.6 661-399-9425
Tower:
BAKERSFIELD TOWER 118.1
Ground:
121.7


105.4 NM300° True-14° Var285° HDG

Flight Plan:
(click to file on line)

1. Type
2. Aircraft Identification
3. Aircraft Type / Special Equipment
4. True Airspeed
kts
5. Departure Airport
(ICAO code)
6. Arriving Airport
(ICAO code)
7. Cruising Altitude
ft
8. Alternate Airport
(ICAO code)
9. Route of Flight
10. Remarks


00:00:00 Departure ATIS: Destination ATIS:

Clearance Limit:
Route:
Altitude: Expect in minutes
Frequency:
Transponder: (7500 Hijack / 7600 Lost Comms / 7700 Emergency)


KVCV 020915Z AUTO 18006KT 10SM CLR 06/M10 A3022 RMK AO2
Time: 2021-12-02T09:15:00Z
1638437273
Winds: 180 @ 6 kts
Visibility: 10.0 sm
Clouds (AGL): CLR
Temperature: 6.0 C
Dew Point: -10.0 C
Pressure: 30.221457 in Hgbr

KBFL 020854Z AUTO 09003KT 4SM HZ CLR 11/04 A3011 RMK AO2 SLP193 T01110044 58001
Time: 2021-12-02T08:54:00Z
1638437273
Winds: 90 @ 3 kts
Visibility: 4.0 sm
Clouds (AGL): CLR
Temperature: 11.1 C
Dew Point: 4.4 C
Pressure: 30.109253 in Hgbr


Notes:

Data extracted from FAA Digital Chart Supplement. Effective: 0901Z Thursday, OCT 7, 2021 to 0901Z Thursday, DEC 2, 2021
Current ATIS data is provided courtisy of PilotEdge.